Terminal Aerodrome Forecast
Issued by NWS

Home | Current Version | Previous Version | Text Only | Print | Product List | Glossary On
Versions: 1 2 3 4 5 6 7 8 9 10 11 12 13 14 15 16 17 18 19 20
000
FTAK31 PAJN 252322
TAFAWG
TAF
PAWG 252322Z 2600/2624 30005KT P6SM FEW015 SCT045
     FM261600 12010KT 3SM -SN BR OVC030
     FM261800 12014G23KT 1 1/2SM -SN BR BKN015 OVC020 WS020/20030KT
     FM262200 13015G26KT 2SM -SNRA BR BKN010 OVC020 WS020/21030KT
      AMD LTD TO CLD VIS AND WIND 2607/2615=

USA.gov is the U.S. government's official web portal to all federal, state and local government web resources and services.